Ahlsell — OYZH — position and weather

sailwx.info

Track history (hours):
 
Tides and Currents Weather Stations Pressure Air Temp Water Temp Dewpoint Dewpoint Depression Visibility Wind Speed Wind Dir Waves Ship Positions

Ahlsell

Last reported at 2015-Feb-28 07:26 UTC. Time now 2015-Mar-05 14:42 UTC.
Position N 55°16' E 009°53'.

Length 40 m; draft 4 m.

Type: Dredging. MMSI: 219000852.

Date/timePositionNaut miles runAvg speedWind from/ knotsBaromVisibWave heightAir tempDewpointWater temp
2015-Feb-28 07:26N 55°16' E 009°53'54 1.4
2015-Feb-26 16:16N 54°38' E 010°59'6 9.1
2015-Feb-26 15:33N 54°37' E 011°10'9 9.0
2015-Feb-26 14:33N 54°33' E 011°24'9 8.7
2015-Feb-26 13:33N 54°30' E 011°38'8 8.1
2015-Feb-26 12:33N 54°28' E 011°51'8 8.0
2015-Feb-26 11:33N 54°27' E 012°05'59 7.4
2015-Feb-26 03:33N 54°56' E 013°35'8 7.5
2015-Feb-26 02:33N 54°58' E 013°47'15 7.5
2015-Feb-26 00:33N 55°01' E 014°13'8 7.4
2015-Feb-25 23:33N 55°05' E 014°24'8 7.9
2015-Feb-25 22:33N 55°05' E 014°38'2 2.1
2015-Feb-25 21:33N 55°06' E 014°41'0 0.0
2015-Feb-25 20:33N 55°06' E 014°41'0 0.0
2015-Feb-25 19:33N 55°06' E 014°41'0 0.0
2015-Feb-25 18:33N 55°06' E 014°41'0 0.0
2015-Feb-25 17:33N 55°06' E 014°41'0 0.0
2015-Feb-25 16:33N 55°06' E 014°41'0 0.0
2015-Feb-25 15:33N 55°06' E 014°41'0 0.0
2015-Feb-25 14:33N 55°06' E 014°41'0 0.0
2015-Feb-25 13:33N 55°06' E 014°41'0 0.0
2015-Feb-25 12:33N 55°06' E 014°41'0 0.0
2015-Feb-25 11:33N 55°06' E 014°41'0 0.0
2015-Feb-25 10:33N 55°06' E 014°41'4 4.0
2015-Feb-25 09:33N 55°02' E 014°41'0 0.0
2015-Feb-25 08:33N 55°02' E 014°41'0 0.0
2015-Feb-25 07:33N 55°02' E 014°41'0 0.0
2015-Feb-25 06:33N 55°02' E 014°41'4 3.9
2015-Feb-25 05:33N 55°06' E 014°41'0 0.1
2015-Feb-25 04:33N 55°06' E 014°41'0 0.0
2015-Feb-25 03:33N 55°06' E 014°41'0 0.0
2015-Feb-25 02:33N 55°06' E 014°41'0 0.0
2015-Feb-25 01:33N 55°06' E 014°41'0 0.0
2015-Feb-25 00:33N 55°06' E 014°41'0 0.0
2015-Feb-24 23:33N 55°06' E 014°41'0 0.0
2015-Feb-24 22:33N 55°06' E 014°41'0 0.0
2015-Feb-24 21:33N 55°06' E 014°41'0 0.0
2015-Feb-24 20:33N 55°06' E 014°41'0 0.0
2015-Feb-24 19:33N 55°06' E 014°41'0 0.0
2015-Feb-24 18:33N 55°06' E 014°41'0 0.0
2015-Feb-24 17:33N 55°06' E 014°41'0 0.0
2015-Feb-24 16:33N 55°06' E 014°41'0 0.0
2015-Feb-24 15:33N 55°06' E 014°41'0 0.0
2015-Feb-24 14:33N 55°06' E 014°41'0 0.0
2015-Feb-24 13:33N 55°06' E 014°41'4 4.1
2015-Feb-24 12:33N 55°02' E 014°39'0 0.0
2015-Feb-24 11:33N 55°02' E 014°39'4 4.1
2015-Feb-24 10:33N 55°06' E 014°41'0 0.0
2015-Feb-24 09:33N 55°06' E 014°41'1 0.9
2015-Feb-24 08:33N 55°05' E 014°40'3 3.2
2015-Feb-24 07:33N 55°02' E 014°39'0 0.0
2015-Feb-24 06:33N 55°02' E 014°39'4 3.9
2015-Feb-24 05:33N 55°06' E 014°41'0 0.2
2015-Feb-24 04:33N 55°06' E 014°41'0 0.0
2015-Feb-24 03:33N 55°06' E 014°41'0 0.0
2015-Feb-24 02:33N 55°06' E 014°41'0 0.0
2015-Feb-24 01:33N 55°06' E 014°41'0 0.0
2015-Feb-24 00:33N 55°06' E 014°41'0 0.0
2015-Feb-23 23:33N 55°06' E 014°41'0 0.0
2015-Feb-23 22:33N 55°06' E 014°41'0 0.0
2015-Feb-23 21:33N 55°06' E 014°41'0 0.0
2015-Feb-23 20:33N 55°06' E 014°41'0 0.0
2015-Feb-23 19:33N 55°06' E 014°41'0 0.0
2015-Feb-23 18:33N 55°06' E 014°41'0 0.0
2015-Feb-23 17:33N 55°06' E 014°41'0 0.0
2015-Feb-23 16:33N 55°06' E 014°41'0 0.0
2015-Feb-23 15:33N 55°06' E 014°41'0 0.0
2015-Feb-23 14:33N 55°06' E 014°41'0 0.0
2015-Feb-23 13:33N 55°06' E 014°41'0 0.0
2015-Feb-23 12:33N 55°06' E 014°41'0 0.0
2015-Feb-23 11:33N 55°06' E 014°41'0 0.0
2015-Feb-23 10:33N 55°06' E 014°41'0 0.0
2015-Feb-23 09:33N 55°06' E 014°41'0 0.0
2015-Feb-23 08:33N 55°06' E 014°41'0 0.0
2015-Feb-23 07:33N 55°06' E 014°41'0 0.0
2015-Feb-23 06:33N 55°06' E 014°41'0 0.0
2015-Feb-23 05:33N 55°06' E 014°41'0 0.0
2015-Feb-23 04:33N 55°06' E 014°41'0 0.0
2015-Feb-23 03:33N 55°06' E 014°41'0 0.0
2015-Feb-23 02:33N 55°06' E 014°41'0 0.0
2015-Feb-23 01:33N 55°06' E 014°41'0 0.0
2015-Feb-23 00:33N 55°06' E 014°41'0 0.0
2015-Feb-22 23:33N 55°06' E 014°41'0 0.0
2015-Feb-22 22:33N 55°06' E 014°41'0 0.0
2015-Feb-22 21:33N 55°06' E 014°41'0 0.0
2015-Feb-22 20:33N 55°06' E 014°41'0 0.0
2015-Feb-22 19:33N 55°06' E 014°41'0 0.0
2015-Feb-22 18:33N 55°06' E 014°41'0 0.0
2015-Feb-22 17:33N 55°06' E 014°41'0 0.0
2015-Feb-22 16:33N 55°06' E 014°41'0 0.0
2015-Feb-22 15:33N 55°06' E 014°41'0 0.0
2015-Feb-22 14:33N 55°06' E 014°41'0 0.0
2015-Feb-22 13:33N 55°06' E 014°41'0 0.0
2015-Feb-22 12:33N 55°06' E 014°41'0 0.0
2015-Feb-22 11:33N 55°06' E 014°41'0 0.0
2015-Feb-22 10:33N 55°06' E 014°41'0 0.0
2015-Feb-22 09:33N 55°06' E 014°41'0 0.0
2015-Feb-22 08:33N 55°06' E 014°41'0 0.0
2015-Feb-22 07:33N 55°06' E 014°41'0 0.0
2015-Feb-22 06:33N 55°06' E 014°41'0 0.0
2015-Feb-22 05:33N 55°06' E 014°41'0 0.0
2015-Feb-22 04:33N 55°06' E 014°41'0 0.0
2015-Feb-22 03:33N 55°06' E 014°41'0 0.0
2015-Feb-22 02:33N 55°06' E 014°41'0 0.0
2015-Feb-22 01:33N 55°06' E 014°41'0 0.0
2015-Feb-22 00:33N 55°06' E 014°41'0 0.0
2015-Feb-21 23:33N 55°06' E 014°41'0 0.0
2015-Feb-21 22:33N 55°06' E 014°41'0 0.0
2015-Feb-21 21:33N 55°06' E 014°41'0 0.0
2015-Feb-21 20:33N 55°06' E 014°41'0 0.0
2015-Feb-21 19:33N 55°06' E 014°41'0 0.0
2015-Feb-21 18:33N 55°06' E 014°41'0 0.0
2015-Feb-21 17:33N 55°06' E 014°41'0 0.0
2015-Feb-21 16:33N 55°06' E 014°41'0 0.1
2015-Feb-21 15:33N 55°06' E 014°41'0 0.0
2015-Feb-21 14:33N 55°06' E 014°41'2 2.0
2015-Feb-21 13:33N 55°04' E 014°41'0 0.0
2015-Feb-21 12:33N 55°04' E 014°41'0 0.1
2015-Feb-21 11:33N 55°04' E 014°41'0 0.0
2015-Feb-21 10:33N 55°04' E 014°41'0 0.0
2015-Feb-21 09:33N 55°04' E 014°41'2 1.9
2015-Feb-21 08:33N 55°06' E 014°41'0 0.0
2015-Feb-21 07:33N 55°06' E 014°41'1 1.1
2015-Feb-21 06:33N 55°05' E 014°40'6 6.2
2015-Feb-21 05:33N 54°59' E 014°46'4 3.6
2015-Feb-21 04:33N 54°57' E 014°51'3 2.6
2015-Feb-21 03:33N 54°59' E 014°48'6 6.5
2015-Feb-21 02:33N 55°04' E 014°41'2 1.7
2015-Feb-21 01:33N 55°06' E 014°41'0 0.0
2015-Feb-21 00:33N 55°06' E 014°41'1 0.8
2015-Feb-20 23:33N 55°05' E 014°41'6 6.1
2015-Feb-20 22:33N 54°60' E 014°46'4 3.6
2015-Feb-20 21:33N 54°57' E 014°50'2 1.7
2015-Feb-20 20:33N 54°59' E 014°48'6 6.1
2015-Feb-20 19:33N 55°04' E 014°42'2 2.4
2015-Feb-20 18:33N 55°06' E 014°41'0 0.0
2015-Feb-20 17:33N 55°06' E 014°41'0 0.0
2015-Feb-20 16:33N 55°06' E 014°41'0 0.0
2015-Feb-20 15:33N 55°06' E 014°41'0 0.0
2015-Feb-20 14:33N 55°06' E 014°41'0 0.0
2015-Feb-20 13:33N 55°06' E 014°41'0 0.0
2015-Feb-20 12:33N 55°06' E 014°41'0 0.0
2015-Feb-20 11:33N 55°06' E 014°41'0 0.0
2015-Feb-20 10:33N 55°06' E 014°41'0 0.0
2015-Feb-20 09:33N 55°06' E 014°41'0 0.0
2015-Feb-20 08:33N 55°06' E 014°41'0 0.1
2015-Feb-20 07:33N 55°06' E 014°41'0 0.0
2015-Feb-20 06:33N 55°06' E 014°41'1 1.4
2015-Feb-20 05:33N 55°05' E 014°40'5 5.4
2015-Feb-20 04:33N 54°60' E 014°44'5 4.7
2015-Feb-20 03:33N 54°56' E 014°50'0 0.1
2015-Feb-20 02:34N 54°56' E 014°50'6 6.5
2015-Feb-20 01:33N 55°02' E 014°44'4 4.4
2015-Feb-20 00:33N 55°06' E 014°41'0 0.0
2015-Feb-19 23:33N 55°06' E 014°41'1 1.2
2015-Feb-19 22:33N 55°05' E 014°41'5 4.7
2015-Feb-19 21:33N 55°01' E 014°45'5 4.5
2015-Feb-19 20:33N 54°57' E 014°50'1 1.0
2015-Feb-19 19:33N 54°56' E 014°50'5 5.1
2015-Feb-19 18:33N 55°01' E 014°45'6 5.8
2015-Feb-19 17:33N 55°06' E 014°41'0 0.0
2015-Feb-19 16:33N 55°06' E 014°41'0 0.0
2015-Feb-19 15:33N 55°06' E 014°41'0 0.0
2015-Feb-19 14:33N 55°06' E 014°41'0 0.0
2015-Feb-19 13:33N 55°06' E 014°41'0 0.0
2015-Feb-19 12:33N 55°06' E 014°41'0 0.0
2015-Feb-19 11:33N 55°06' E 014°41'0 0.0
2015-Feb-19 10:33N 55°06' E 014°41'0 0.0
2015-Feb-19 09:33N 55°06' E 014°41'0 0.0
2015-Feb-19 08:33N 55°06' E 014°41'0 0.0
2015-Feb-19 07:33N 55°06' E 014°41'0 0.0
2015-Feb-19 06:33N 55°06' E 014°41'0 0.0
2015-Feb-19 05:33N 55°06' E 014°41'0 0.0
2015-Feb-19 04:33N 55°06' E 014°41'0 0.0
2015-Feb-19 03:33N 55°06' E 014°41'0 0.0
2015-Feb-19 02:33N 55°06' E 014°41'0 0.0
2015-Feb-19 01:33N 55°06' E 014°41'0 0.0
2015-Feb-19 00:33N 55°06' E 014°41'0 0.0
2015-Feb-18 23:33N 55°06' E 014°41'0 0.0
2015-Feb-18 22:33N 55°06' E 014°41'0 0.0
2015-Feb-18 21:33N 55°06' E 014°41'0 0.0
2015-Feb-18 20:33N 55°06' E 014°41'0 0.0
2015-Feb-18 19:33N 55°06' E 014°41'0 0.0
2015-Feb-18 18:33N 55°06' E 014°41'0 0.0
2015-Feb-18 17:33N 55°06' E 014°41'0 0.0
2015-Feb-18 16:33N 55°06' E 014°41'0 0.0
2015-Feb-18 15:33N 55°06' E 014°41'0 0.0
2015-Feb-18 14:33N 55°06' E 014°41'0 0.0
2015-Feb-18 13:33N 55°06' E 014°41'0 0.0
2015-Feb-18 12:33N 55°06' E 014°41'0 0.1
2015-Feb-18 11:33N 55°06' E 014°41'0 0.0
2015-Feb-18 10:33N 55°06' E 014°41'0 0.1
2015-Feb-18 09:34N 55°06' E 014°41'4 3.9
2015-Feb-18 08:33N 55°02' E 014°42'4 3.9
2015-Feb-18 07:33N 54°59' E 014°47'  
Track history (hours):
 
Tides and Currents Weather Stations Pressure Air Temp Water Temp Dewpoint Dewpoint Depression Visibility Wind Speed Wind Dir Waves Ship Positions

Ahlsell

Last reported at 2015-Feb-28 07:26 UTC. Time now 2015-Mar-05 14:42 UTC.
Position N 55°16' E 009°53'.

Length 40 m; draft 4 m.

Type: Dredging. MMSI: 219000852.

Date/timePositionNaut miles runAvg speedWind from/ knotsBaromVisibWave heightAir tempDewpointWater temp
2015-Feb-28 07:26N 55°16' E 009°53'54 1.4
2015-Feb-26 16:16N 54°38' E 010°59'6 9.1
2015-Feb-26 15:33N 54°37' E 011°10'9 9.0
2015-Feb-26 14:33N 54°33' E 011°24'9 8.7
2015-Feb-26 13:33N 54°30' E 011°38'8 8.1
2015-Feb-26 12:33N 54°28' E 011°51'8 8.0
2015-Feb-26 11:33N 54°27' E 012°05'59 7.4
2015-Feb-26 03:33N 54°56' E 013°35'8 7.5
2015-Feb-26 02:33N 54°58' E 013°47'15 7.5
2015-Feb-26 00:33N 55°01' E 014°13'8 7.4
2015-Feb-25 23:33N 55°05' E 014°24'8 7.9
2015-Feb-25 22:33N 55°05' E 014°38'2 2.1
2015-Feb-25 21:33N 55°06' E 014°41'0 0.0
2015-Feb-25 20:33N 55°06' E 014°41'0 0.0
2015-Feb-25 19:33N 55°06' E 014°41'0 0.0
2015-Feb-25 18:33N 55°06' E 014°41'0 0.0
2015-Feb-25 17:33N 55°06' E 014°41'0 0.0
2015-Feb-25 16:33N 55°06' E 014°41'0 0.0
2015-Feb-25 15:33N 55°06' E 014°41'0 0.0
2015-Feb-25 14:33N 55°06' E 014°41'0 0.0
2015-Feb-25 13:33N 55°06' E 014°41'0 0.0
2015-Feb-25 12:33N 55°06' E 014°41'0 0.0
2015-Feb-25 11:33N 55°06' E 014°41'0 0.0
2015-Feb-25 10:33N 55°06' E 014°41'4 4.0
2015-Feb-25 09:33N 55°02' E 014°41'0 0.0
2015-Feb-25 08:33N 55°02' E 014°41'0 0.0
2015-Feb-25 07:33N 55°02' E 014°41'0 0.0
2015-Feb-25 06:33N 55°02' E 014°41'4 3.9
2015-Feb-25 05:33N 55°06' E 014°41'0 0.1
2015-Feb-25 04:33N 55°06' E 014°41'0 0.0
2015-Feb-25 03:33N 55°06' E 014°41'0 0.0
2015-Feb-25 02:33N 55°06' E 014°41'0 0.0
2015-Feb-25 01:33N 55°06' E 014°41'0 0.0
2015-Feb-25 00:33N 55°06' E 014°41'0 0.0
2015-Feb-24 23:33N 55°06' E 014°41'0 0.0
2015-Feb-24 22:33N 55°06' E 014°41'0 0.0
2015-Feb-24 21:33N 55°06' E 014°41'0 0.0
2015-Feb-24 20:33N 55°06' E 014°41'0 0.0
2015-Feb-24 19:33N 55°06' E 014°41'0 0.0
2015-Feb-24 18:33N 55°06' E 014°41'0 0.0
2015-Feb-24 17:33N 55°06' E 014°41'0 0.0
2015-Feb-24 16:33N 55°06' E 014°41'0 0.0
2015-Feb-24 15:33N 55°06' E 014°41'0 0.0
2015-Feb-24 14:33N 55°06' E 014°41'0 0.0
2015-Feb-24 13:33N 55°06' E 014°41'4 4.1
2015-Feb-24 12:33N 55°02' E 014°39'0 0.0
2015-Feb-24 11:33N 55°02' E 014°39'4 4.1
2015-Feb-24 10:33N 55°06' E 014°41'0 0.0
2015-Feb-24 09:33N 55°06' E 014°41'1 0.9
2015-Feb-24 08:33N 55°05' E 014°40'3 3.2
2015-Feb-24 07:33N 55°02' E 014°39'0 0.0
2015-Feb-24 06:33N 55°02' E 014°39'4 3.9
2015-Feb-24 05:33N 55°06' E 014°41'0 0.2
2015-Feb-24 04:33N 55°06' E 014°41'0 0.0
2015-Feb-24 03:33N 55°06' E 014°41'0 0.0
2015-Feb-24 02:33N 55°06' E 014°41'0 0.0
2015-Feb-24 01:33N 55°06' E 014°41'0 0.0
2015-Feb-24 00:33N 55°06' E 014°41'0 0.0
2015-Feb-23 23:33N 55°06' E 014°41'0 0.0
2015-Feb-23 22:33N 55°06' E 014°41'0 0.0
2015-Feb-23 21:33N 55°06' E 014°41'0 0.0
2015-Feb-23 20:33N 55°06' E 014°41'0 0.0
2015-Feb-23 19:33N 55°06' E 014°41'0 0.0
2015-Feb-23 18:33N 55°06' E 014°41'0 0.0
2015-Feb-23 17:33N 55°06' E 014°41'0 0.0
2015-Feb-23 16:33N 55°06' E 014°41'0 0.0
2015-Feb-23 15:33N 55°06' E 014°41'0 0.0
2015-Feb-23 14:33N 55°06' E 014°41'0 0.0
2015-Feb-23 13:33N 55°06' E 014°41'0 0.0
2015-Feb-23 12:33N 55°06' E 014°41'0 0.0
2015-Feb-23 11:33N 55°06' E 014°41'0 0.0
2015-Feb-23 10:33N 55°06' E 014°41'0 0.0
2015-Feb-23 09:33N 55°06' E 014°41'0 0.0
2015-Feb-23 08:33N 55°06' E 014°41'0 0.0
2015-Feb-23 07:33N 55°06' E 014°41'0 0.0
2015-Feb-23 06:33N 55°06' E 014°41'0 0.0
2015-Feb-23 05:33N 55°06' E 014°41'0 0.0
2015-Feb-23 04:33N 55°06' E 014°41'0 0.0
2015-Feb-23 03:33N 55°06' E 014°41'0 0.0
2015-Feb-23 02:33N 55°06' E 014°41'0 0.0
2015-Feb-23 01:33N 55°06' E 014°41'0 0.0
2015-Feb-23 00:33N 55°06' E 014°41'0 0.0
2015-Feb-22 23:33N 55°06' E 014°41'0 0.0
2015-Feb-22 22:33N 55°06' E 014°41'0 0.0
2015-Feb-22 21:33N 55°06' E 014°41'0 0.0
2015-Feb-22 20:33N 55°06' E 014°41'0 0.0
2015-Feb-22 19:33N 55°06' E 014°41'0 0.0
2015-Feb-22 18:33N 55°06' E 014°41'0 0.0
2015-Feb-22 17:33N 55°06' E 014°41'0 0.0
2015-Feb-22 16:33N 55°06' E 014°41'0 0.0
2015-Feb-22 15:33N 55°06' E 014°41'0 0.0
2015-Feb-22 14:33N 55°06' E 014°41'0 0.0
2015-Feb-22 13:33N 55°06' E 014°41'0 0.0
2015-Feb-22 12:33N 55°06' E 014°41'0 0.0
2015-Feb-22 11:33N 55°06' E 014°41'0 0.0
2015-Feb-22 10:33N 55°06' E 014°41'0 0.0
2015-Feb-22 09:33N 55°06' E 014°41'0 0.0
2015-Feb-22 08:33N 55°06' E 014°41'0 0.0
2015-Feb-22 07:33N 55°06' E 014°41'0 0.0
2015-Feb-22 06:33N 55°06' E 014°41'0 0.0
2015-Feb-22 05:33N 55°06' E 014°41'0 0.0
2015-Feb-22 04:33N 55°06' E 014°41'0 0.0
2015-Feb-22 03:33N 55°06' E 014°41'0 0.0
2015-Feb-22 02:33N 55°06' E 014°41'0 0.0
2015-Feb-22 01:33N 55°06' E 014°41'0 0.0
2015-Feb-22 00:33N 55°06' E 014°41'0 0.0
2015-Feb-21 23:33N 55°06' E 014°41'0 0.0
2015-Feb-21 22:33N 55°06' E 014°41'0 0.0
2015-Feb-21 21:33N 55°06' E 014°41'0 0.0
2015-Feb-21 20:33N 55°06' E 014°41'0 0.0
2015-Feb-21 19:33N 55°06' E 014°41'0 0.0
2015-Feb-21 18:33N 55°06' E 014°41'0 0.0
2015-Feb-21 17:33N 55°06' E 014°41'0 0.0
2015-Feb-21 16:33N 55°06' E 014°41'0 0.1
2015-Feb-21 15:33N 55°06' E 014°41'0 0.0
2015-Feb-21 14:33N 55°06' E 014°41'2 2.0
2015-Feb-21 13:33N 55°04' E 014°41'0 0.0
2015-Feb-21 12:33N 55°04' E 014°41'0 0.1
2015-Feb-21 11:33N 55°04' E 014°41'0 0.0
2015-Feb-21 10:33N 55°04' E 014°41'0 0.0
2015-Feb-21 09:33N 55°04' E 014°41'2 1.9
2015-Feb-21 08:33N 55°06' E 014°41'0 0.0
2015-Feb-21 07:33N 55°06' E 014°41'1 1.1
2015-Feb-21 06:33N 55°05' E 014°40'6 6.2
2015-Feb-21 05:33N 54°59' E 014°46'4 3.6
2015-Feb-21 04:33N 54°57' E 014°51'3 2.6
2015-Feb-21 03:33N 54°59' E 014°48'6 6.5
2015-Feb-21 02:33N 55°04' E 014°41'2 1.7
2015-Feb-21 01:33N 55°06' E 014°41'0 0.0
2015-Feb-21 00:33N 55°06' E 014°41'1 0.8
2015-Feb-20 23:33N 55°05' E 014°41'6 6.1
2015-Feb-20 22:33N 54°60' E 014°46'4 3.6
2015-Feb-20 21:33N 54°57' E 014°50'2 1.7
2015-Feb-20 20:33N 54°59' E 014°48'6 6.1
2015-Feb-20 19:33N 55°04' E 014°42'2 2.4
2015-Feb-20 18:33N 55°06' E 014°41'0 0.0
2015-Feb-20 17:33N 55°06' E 014°41'0 0.0
2015-Feb-20 16:33N 55°06' E 014°41'0 0.0
2015-Feb-20 15:33N 55°06' E 014°41'0 0.0
2015-Feb-20 14:33N 55°06' E 014°41'0 0.0
2015-Feb-20 13:33N 55°06' E 014°41'0 0.0
2015-Feb-20 12:33N 55°06' E 014°41'0 0.0
2015-Feb-20 11:33N 55°06' E 014°41'0 0.0
2015-Feb-20 10:33N 55°06' E 014°41'0 0.0
2015-Feb-20 09:33N 55°06' E 014°41'0 0.0
2015-Feb-20 08:33N 55°06' E 014°41'0 0.1
2015-Feb-20 07:33N 55°06' E 014°41'0 0.0
2015-Feb-20 06:33N 55°06' E 014°41'1 1.4
2015-Feb-20 05:33N 55°05' E 014°40'5 5.4
2015-Feb-20 04:33N 54°60' E 014°44'5 4.7
2015-Feb-20 03:33N 54°56' E 014°50'0 0.1
2015-Feb-20 02:34N 54°56' E 014°50'6 6.5
2015-Feb-20 01:33N 55°02' E 014°44'4 4.4
2015-Feb-20 00:33N 55°06' E 014°41'0 0.0
2015-Feb-19 23:33N 55°06' E 014°41'1 1.2
2015-Feb-19 22:33N 55°05' E 014°41'5 4.7
2015-Feb-19 21:33N 55°01' E 014°45'5 4.5
2015-Feb-19 20:33N 54°57' E 014°50'1 1.0
2015-Feb-19 19:33N 54°56' E 014°50'5 5.1
2015-Feb-19 18:33N 55°01' E 014°45'6 5.8
2015-Feb-19 17:33N 55°06' E 014°41'0 0.0
2015-Feb-19 16:33N 55°06' E 014°41'0 0.0
2015-Feb-19 15:33N 55°06' E 014°41'0 0.0
2015-Feb-19 14:33N 55°06' E 014°41'0 0.0
2015-Feb-19 13:33N 55°06' E 014°41'0 0.0
2015-Feb-19 12:33N 55°06' E 014°41'0 0.0
2015-Feb-19 11:33N 55°06' E 014°41'0 0.0
2015-Feb-19 10:33N 55°06' E 014°41'0 0.0
2015-Feb-19 09:33N 55°06' E 014°41'0 0.0
2015-Feb-19 08:33N 55°06' E 014°41'0 0.0
2015-Feb-19 07:33N 55°06' E 014°41'0 0.0
2015-Feb-19 06:33N 55°06' E 014°41'0 0.0
2015-Feb-19 05:33N 55°06' E 014°41'0 0.0
2015-Feb-19 04:33N 55°06' E 014°41'0 0.0
2015-Feb-19 03:33N 55°06' E 014°41'0 0.0
2015-Feb-19 02:33N 55°06' E 014°41'0 0.0
2015-Feb-19 01:33N 55°06' E 014°41'0 0.0
2015-Feb-19 00:33N 55°06' E 014°41'0 0.0
2015-Feb-18 23:33N 55°06' E 014°41'0 0.0
2015-Feb-18 22:33N 55°06' E 014°41'0 0.0
2015-Feb-18 21:33N 55°06' E 014°41'0 0.0
2015-Feb-18 20:33N 55°06' E 014°41'0 0.0
2015-Feb-18 19:33N 55°06' E 014°41'0 0.0
2015-Feb-18 18:33N 55°06' E 014°41'0 0.0
2015-Feb-18 17:33N 55°06' E 014°41'0 0.0
2015-Feb-18 16:33N 55°06' E 014°41'0 0.0
2015-Feb-18 15:33N 55°06' E 014°41'0 0.0
2015-Feb-18 14:33N 55°06' E 014°41'0 0.0
2015-Feb-18 13:33N 55°06' E 014°41'0 0.0
2015-Feb-18 12:33N 55°06' E 014°41'0 0.1
2015-Feb-18 11:33N 55°06' E 014°41'0 0.0
2015-Feb-18 10:33N 55°06' E 014°41'0 0.1
2015-Feb-18 09:34N 55°06' E 014°41'4 3.9
2015-Feb-18 08:33N 55°02' E 014°42'4 3.9
2015-Feb-18 07:33N 54°59' E 014°47'  

Dump ship's entire track history